Time;durP1;ratioP1;P1;durP2;ratioP2;P2;SDS_P1;SDS_P2;PMS_P1;PMS_P2;Temp;Humidity;BMP_temperature;BMP_pressure;BME280_temperature;BME280_humidity;BME280_pressure;Samples;Min_cycle;Max_cycle;Signal;HPM_P1;HPM_P2
2022/12/07 00:01:28;;;;;;;6.68;2.35;;;4.60;99.90;;;;;;5025501;22;20042;-78
2022/12/07 00:04:00;;;;;;;4.45;2.55;;;4.60;99.90;;;;;;5012664;28;20754;-78
2022/12/07 00:06:26;;;;;;;5.95;3.25;;;4.60;99.90;;;;;;5005056;28;20084;-78
2022/12/07 00:08:52;;;;;;;8.88;3.28;;;4.70;99.90;;;;;;5028319;28;20030;-78
2022/12/07 00:11:21;;;;;;;12.57;2.97;;;4.70;99.90;;;;;;5020783;28;20025;-78
2022/12/07 00:13:56;;;;;;;10.02;3.75;;;4.70;99.90;;;;;;5012786;28;20030;-78
2022/12/07 00:16:25;;;;;;;7.28;2.67;;;4.80;99.90;;;;;;5009920;28;20037;-78
2022/12/07 00:18:51;;;;;;;6.07;3.25;;;4.80;99.90;;;;;;4995329;28;20030;-79
2022/12/07 00:21:27;;;;;;;7.22;3.38;;;4.80;99.90;;;;;;5010074;28;20036;-78
2022/12/07 00:23:55;;;;;;;6.05;2.90;;;4.80;99.90;;;;;;5012908;28;20033;-78
2022/12/07 00:26:26;;;;;;;4.35;2.90;;;4.80;99.90;;;;;;5010295;28;20044;-78
2022/12/07 00:28:57;;;;;;;7.85;2.85;;;4.80;99.90;;;;;;4994964;28;20032;-78
2022/12/07 00:31:26;;;;;;;4.35;2.78;;;4.80;99.90;;;;;;5032054;23;20069;-78
2022/12/07 00:33:52;;;;;;;7.80;2.50;;;4.80;99.90;;;;;;5031655;28;20037;-78
2022/12/07 00:36:22;;;;;;;9.93;3.97;;;4.80;99.90;;;;;;5028717;28;20495;-78
2022/12/07 00:38:48;;;;;;;7.93;3.45;;;4.80;99.90;;;;;;5031221;28;20088;-78
2022/12/07 00:41:20;;;;;;;10.15;3.25;;;4.80;99.90;;;;;;5003032;28;20571;-79
2022/12/07 00:43:47;;;;;;;6.13;3.00;;;4.70;99.90;;;;;;4994507;28;20037;-78
2022/12/07 00:46:15;;;;;;;5.15;2.90;;;4.70;99.90;;;;;;4989848;28;20026;-78
2022/12/07 00:48:41;;;;;;;11.77;3.03;;;4.70;99.90;;;;;;4993855;28;20396;-78
2022/12/07 00:51:09;;;;;;;8.00;3.00;;;4.70;99.90;;;;;;5001238;28;20120;-78
2022/12/07 00:53:36;;;;;;;5.20;2.78;;;4.80;99.90;;;;;;4989659;28;20030;-78
2022/12/07 00:56:27;;;;;;;7.20;3.20;;;4.70;99.90;;;;;;5011444;28;20033;-78
2022/12/07 00:58:59;;;;;;;9.02;3.25;;;4.70;99.90;;;;;;5002108;28;20058;-78
2022/12/07 01:01:28;;;;;;;4.38;2.88;;;4.70;99.90;;;;;;4993874;28;20108;-78
2022/12/07 01:03:54;;;;;;;4.93;2.50;;;4.70;99.90;;;;;;5009475;28;20033;-78
2022/12/07 01:06:21;;;;;;;5.88;3.10;;;4.70;99.90;;;;;;5011437;28;20033;-78
2022/12/07 01:08:48;;;;;;;3.85;2.15;;;4.70;99.90;;;;;;4990767;28;20037;-78
2022/12/07 01:11:18;;;;;;;4.53;2.42;;;4.50;99.90;;;;;;5011591;28;20021;-78
2022/12/07 01:13:44;;;;;;;4.43;2.58;;;4.50;99.90;;;;;;5009475;28;20062;-80
2022/12/07 01:16:14;;;;;;;13.88;3.47;;;4.40;99.90;;;;;;5008179;28;20030;-78
2022/12/07 01:18:41;;;;;;;10.02;3.97;;;4.40;99.90;;;;;;5007643;28;20040;-78
2022/12/07 01:21:12;;;;;;;8.38;3.45;;;4.30;99.90;;;;;;5009319;28;20037;-78
2022/12/07 01:23:38;;;;;;;6.13;3.30;;;4.30;99.90;;;;;;4989877;28;20119;-78
2022/12/07 01:26:10;;;;;;;6.53;3.33;;;4.20;99.90;;;;;;5009496;28;20080;-78
2022/12/07 01:28:36;;;;;;;8.52;3.42;;;4.20;99.90;;;;;;5006074;28;20029;-78
2022/12/07 01:33:49;;;;;;;8.02;2.83;;;4.20;99.90;;;;;;5067965;28;20381;-78
2022/12/07 01:36:22;;;;;;;7.13;3.20;;;4.00;99.90;;;;;;5044282;28;20068;-78
2022/12/07 01:38:52;;;;;;;15.20;4.40;;;4.00;99.90;;;;;;5045073;28;20036;-78
2022/12/07 01:41:20;;;;;;;5.03;3.10;;;4.10;99.90;;;;;;5046699;28;20040;-78
2022/12/07 01:44:21;;;;;;;6.70;3.22;;;4.10;99.90;;;;;;5046465;28;20443;-77
2022/12/07 01:46:58;;;;;;;5.00;2.83;;;4.20;99.90;;;;;;5041025;28;20108;-78
2022/12/07 01:49:45;;;;;;;6.05;2.78;;;4.20;99.90;;;;;;5040345;28;20048;-78
2022/12/07 01:52:25;;;;;;;11.57;3.55;;;4.20;99.90;;;;;;5061394;28;20128;-78
2022/12/07 01:54:57;;;;;;;4.72;2.55;;;4.30;99.90;;;;;;5062625;28;20098;-78
2022/12/07 01:57:23;;;;;;;8.25;4.15;;;4.40;99.90;;;;;;5061725;28;20025;-78
2022/12/07 01:59:51;;;;;;;7.53;2.80;;;4.40;99.90;;;;;;5062917;28;20033;-78
2022/12/07 02:02:31;;;;;;;5.82;2.80;;;4.30;99.90;;;;;;5051501;28;20488;-77
2022/12/07 02:05:01;;;;;;;7.70;3.60;;;4.20;99.90;;;;;;5031299;28;20041;-78
2022/12/07 02:07:28;;;;;;;7.50;2.63;;;4.20;99.90;;;;;;5034245;28;20041;-78
2022/12/07 02:09:54;;;;;;;4.43;2.55;;;4.30;99.90;;;;;;5047123;28;20021;-78
2022/12/07 02:12:22;;;;;;;7.35;3.15;;;4.40;99.90;;;;;;5056109;28;20086;-78
2022/12/07 02:14:48;;;;;;;12.40;2.95;;;4.30;99.90;;;;;;5047389;28;20037;-77
2022/12/07 02:17:33;;;;;;;6.57;3.25;;;4.30;99.90;;;;;;5054538;28;20473;-77
2022/12/07 02:20:27;;;;;;;7.75;3.55;;;4.20;99.90;;;;;;5061365;28;20098;-77
2022/12/07 02:23:18;;;;;;;9.13;3.70;;;4.20;99.90;;;;;;5054994;28;20104;-77
2022/12/07 02:26:19;;;;;;;5.88;3.03;;;4.20;99.90;;;;;;5057321;28;20143;-77
2022/12/07 02:29:11;;;;;;;8.73;3.75;;;4.20;99.90;;;;;;5035300;28;20034;-77
2022/12/07 02:31:51;;;;;;;8.63;3.38;;;4.20;99.90;;;;;;5041581;28;20065;-77
2022/12/07 02:34:40;;;;;;;7.18;2.78;;;4.20;99.90;;;;;;5045630;28;20025;-78
2022/12/07 02:37:56;;;;;;;9.15;2.67;;;4.10;99.90;;;;;;5054858;28;20663;-77
2022/12/07 02:40:42;;;;;;;4.70;3.17;;;4.10;99.90;;;;;;5049834;28;20075;-77
2022/12/07 02:43:17;;;;;;;6.47;3.47;;;4.00;99.90;;;;;;5040503;28;20030;-78
2022/12/07 02:45:45;;;;;;;4.88;1.98;;;3.90;99.90;;;;;;5048970;28;20041;-77
2022/12/07 02:48:16;;;;;;;11.77;4.75;;;3.90;99.90;;;;;;5041803;28;20040;-78
2022/12/07 02:50:52;;;;;;;7.10;3.10;;;3.90;99.90;;;;;;5038418;28;20034;-77
2022/12/07 02:53:43;;;;;;;5.40;2.38;;;3.90;99.90;;;;;;5017702;28;20128;-77
2022/12/07 02:56:42;;;;;;;5.05;3.33;;;4.00;99.90;;;;;;5021822;28;20105;-78
2022/12/07 02:59:47;;;;;;;8.15;3.33;;;4.00;99.90;;;;;;5017549;28;20045;-78
2022/12/07 03:02:35;;;;;;;5.25;3.10;;;4.00;99.90;;;;;;5011080;28;20532;-78
2022/12/07 03:05:47;;;;;;;15.32;3.85;;;4.00;99.90;;;;;;5030958;28;20133;-78
2022/12/07 03:08:45;;;;;;;5.97;3.03;;;4.00;99.90;;;;;;5010796;28;20038;-78
2022/12/07 03:11:47;;;;;;;7.30;3.33;;;4.00;99.90;;;;;;5016069;28;20371;-79
2022/12/07 03:14:30;;;;;;;5.65;3.45;;;4.00;99.90;;;;;;5015010;28;20053;-77
2022/12/07 03:17:07;;;;;;;7.85;2.95;;;4.10;99.90;;;;;;5024963;28;20478;-77
2022/12/07 03:19:35;;;;;;;10.10;3.63;;;4.20;99.90;;;;;;5020171;28;20095;-78
2022/12/07 03:22:07;;;;;;;19.05;3.20;;;4.30;99.90;;;;;;5028213;28;20033;-78
2022/12/07 03:24:44;;;;;;;13.40;3.60;;;4.20;99.90;;;;;;5046565;28;20040;-78
2022/12/07 03:27:25;;;;;;;7.43;2.47;;;4.20;99.90;;;;;;5039591;28;20025;-78
2022/12/07 03:29:58;;;;;;;14.60;2.72;;;4.30;99.90;;;;;;5039600;28;20036;-78
2022/12/07 03:32:37;;;;;;;3.35;2.22;;;4.20;99.90;;;;;;5032544;28;20222;-78
2022/12/07 03:35:17;;;;;;;12.05;4.35;;;4.20;99.90;;;;;;5024645;28;20128;-78
2022/12/07 03:37:51;;;;;;;3.97;2.40;;;4.20;99.90;;;;;;5047268;28;20040;-78
2022/12/07 03:40:37;;;;;;;4.28;2.47;;;4.10;99.90;;;;;;5045095;28;20488;-77
2022/12/07 03:43:04;;;;;;;2.85;1.63;;;4.20;99.90;;;;;;5032134;28;20077;-78
2022/12/07 03:46:05;;;;;;;7.13;2.72;;;4.20;99.90;;;;;;5030380;28;20092;-78
2022/12/07 03:48:51;;;;;;;8.85;2.90;;;4.20;99.90;;;;;;5007706;28;20045;-79
2022/12/07 03:51:42;;;;;;;5.65;2.13;;;4.30;99.90;;;;;;5023998;28;20120;-80
2022/12/07 03:54:51;;;;;;;9.68;2.80;;;4.30;99.90;;;;;;5044595;28;20048;-79
2022/12/07 03:57:18;;;;;;;5.78;2.33;;;4.30;99.90;;;;;;5025879;28;20065;-79
2022/12/07 03:59:45;;;;;;;7.30;3.92;;;4.30;99.90;;;;;;5035052;28;20079;-79
2022/12/07 04:02:13;;;;;;;5.75;3.40;;;4.30;99.90;;;;;;5039523;28;20040;-79
2022/12/07 04:04:41;;;;;;;11.25;2.60;;;4.40;99.90;;;;;;5045826;28;20044;-79
2022/12/07 04:07:07;;;;;;;6.32;2.75;;;4.40;99.90;;;;;;5037816;28;20077;-79
2022/12/07 04:09:32;;;;;;;4.68;2.70;;;4.40;99.90;;;;;;5012084;28;20026;-79
2022/12/07 04:11:58;;;;;;;7.25;3.28;;;4.40;99.90;;;;;;5027789;28;20038;-78
2022/12/07 04:14:24;;;;;;;5.47;3.33;;;4.30;99.90;;;;;;5009922;28;20041;-78
2022/12/07 04:16:51;;;;;;;5.25;2.65;;;4.20;99.90;;;;;;5012234;28;20127;-78
2022/12/07 04:19:20;;;;;;;4.15;2.42;;;4.10;99.90;;;;;;5018350;28;20026;-78
2022/12/07 04:21:47;;;;;;;5.43;2.80;;;4.10;99.90;;;;;;5028293;28;20489;-79
2022/12/07 04:24:14;;;;;;;6.88;2.67;;;4.00;99.90;;;;;;5031845;28;20425;-79
2022/12/07 04:26:42;;;;;;;6.35;2.58;;;4.10;99.90;;;;;;5045795;28;20026;-79
2022/12/07 04:29:08;;;;;;;5.03;3.47;;;4.10;99.90;;;;;;5046684;28;20029;-79
2022/12/07 04:31:35;;;;;;;6.40;3.15;;;4.10;99.90;;;;;;5043159;28;20087;-79
2022/12/07 04:34:01;;;;;;;6.45;2.92;;;4.10;99.90;;;;;;5031631;28;20029;-79
2022/12/07 04:36:27;;;;;;;2.85;2.33;;;4.10;99.90;;;;;;5045383;28;20559;-79
2022/12/07 04:38:54;;;;;;;9.80;2.92;;;4.10;99.90;;;;;;5031039;28;20041;-78
2022/12/07 04:41:26;;;;;;;5.45;3.03;;;4.10;99.90;;;;;;5028119;28;20027;-78
2022/12/07 04:43:57;;;;;;;6.45;2.97;;;4.10;99.90;;;;;;5031431;28;20120;-79
2022/12/07 04:46:24;;;;;;;7.20;3.58;;;4.10;99.90;;;;;;5028126;28;20030;-78
2022/12/07 04:48:52;;;;;;;6.20;2.00;;;4.10;99.90;;;;;;5030809;28;20545;-80
2022/12/07 04:51:25;;;;;;;6.47;2.83;;;4.10;99.90;;;;;;5045088;28;20112;-79
2022/12/07 04:53:51;;;;;;;4.55;3.08;;;4.10;99.90;;;;;;5046451;28;20041;-79
2022/12/07 04:56:18;;;;;;;4.95;2.83;;;4.00;99.90;;;;;;5037201;28;20083;-79
2022/12/07 04:58:45;;;;;;;6.07;3.00;;;4.10;99.90;;;;;;5029053;28;20033;-79
2022/12/07 05:01:12;;;;;;;5.72;3.13;;;4.10;99.90;;;;;;5027013;28;20036;-80
2022/12/07 05:03:38;;;;;;;4.57;2.30;;;4.00;99.90;;;;;;5030928;28;20044;-80
2022/12/07 05:06:05;;;;;;;4.63;2.17;;;4.00;99.90;;;;;;5042303;28;20420;-79
2022/12/07 05:08:33;;;;;;;8.30;2.85;;;4.00;99.90;;;;;;5029187;28;20026;-78
2022/12/07 05:11:00;;;;;;;6.50;2.78;;;3.90;99.90;;;;;;5042224;28;20028;-79
2022/12/07 05:13:26;;;;;;;5.47;3.10;;;3.90;99.90;;;;;;5030836;28;20053;-79
2022/12/07 05:15:51;;;;;;;4.55;2.55;;;3.80;99.90;;;;;;5029567;28;20034;-78
2022/12/07 05:18:17;;;;;;;7.57;2.85;;;3.80;99.90;;;;;;5030574;28;20401;-79
2022/12/07 05:20:44;;;;;;;5.45;2.83;;;3.80;99.90;;;;;;5029788;28;20665;-81
2022/12/07 05:23:10;;;;;;;5.25;2.05;;;3.90;99.90;;;;;;5022608;28;20029;-79
2022/12/07 05:25:36;;;;;;;5.32;2.25;;;3.90;99.90;;;;;;5030022;28;20037;-80
2022/12/07 05:28:04;;;;;;;6.50;2.97;;;4.00;99.90;;;;;;5031100;28;20025;-80
2022/12/07 05:30:32;;;;;;;4.95;3.45;;;4.00;99.90;;;;;;5030439;28;20059;-79
2022/12/07 05:32:58;;;;;;;5.20;2.88;;;4.00;99.90;;;;;;5046110;28;20037;-79
2022/12/07 05:35:24;;;;;;;7.20;3.53;;;4.00;99.90;;;;;;5029743;28;20651;-80
2022/12/07 05:37:49;;;;;;;9.30;2.83;;;4.00;99.90;;;;;;5028890;28;20045;-79
2022/12/07 05:40:16;;;;;;;7.53;2.75;;;4.00;99.90;;;;;;5025113;28;20029;-78
2022/12/07 05:42:42;;;;;;;5.00;2.67;;;4.00;99.90;;;;;;5023962;28;20045;-77
2022/12/07 05:45:09;;;;;;;8.23;3.78;;;4.00;99.90;;;;;;5022748;28;20052;-77
2022/12/07 05:47:36;;;;;;;5.78;2.72;;;4.10;99.90;;;;;;5014141;28;20033;-80
2022/12/07 05:50:02;;;;;;;3.97;2.45;;;4.20;99.90;;;;;;5028868;28;20030;-79
2022/12/07 05:52:28;;;;;;;7.13;2.25;;;4.20;99.90;;;;;;5024618;28;20030;-82
2022/12/07 05:54:54;;;;;;;5.78;3.83;;;4.20;99.90;;;;;;5029295;28;20026;-85
2022/12/07 05:57:20;;;;;;;6.57;3.50;;;4.30;99.90;;;;;;5030749;28;20041;-84
2022/12/07 05:59:45;;;;;;;6.05;2.67;;;4.50;99.90;;;;;;5031601;28;20060;-76
2022/12/07 06:02:15;;;;;;;3.95;2.10;;;4.30;99.90;;;;;;5026501;22;20057;-73
2022/12/07 06:04:43;;;;;;;7.15;3.60;;;4.20;99.90;;;;;;5006140;28;20041;-73
2022/12/07 06:07:12;;;;;;;5.03;3.05;;;4.10;99.90;;;;;;5009371;28;20037;-73
2022/12/07 06:09:38;;;;;;;6.13;3.20;;;4.10;99.90;;;;;;5005742;28;20041;-73
2022/12/07 06:14:49;;;;;;;4.85;2.30;;;4.00;99.90;;;;;;5009048;28;20037;-73
2022/12/07 06:17:15;;;;;;;9.93;3.58;;;3.90;99.90;;;;;;5007819;28;20026;-72
2022/12/07 06:19:41;;;;;;;7.00;3.08;;;3.80;99.90;;;;;;5006327;28;20517;-73
2022/12/07 06:22:09;;;;;;;8.52;3.20;;;3.80;99.90;;;;;;5024712;28;20107;-72
2022/12/07 06:24:35;;;;;;;7.50;4.78;;;3.80;99.90;;;;;;5013869;28;20021;-73
2022/12/07 06:27:01;;;;;;;4.55;2.95;;;3.80;99.90;;;;;;5013264;28;20096;-74
2022/12/07 06:29:27;;;;;;;9.30;4.22;;;3.80;99.90;;;;;;5030250;28;20085;-74
2022/12/07 06:31:53;;;;;;;5.35;3.28;;;3.70;99.90;;;;;;5012612;28;20540;-76
2022/12/07 06:34:22;;;;;;;7.97;3.92;;;3.80;99.90;;;;;;5013639;28;20018;-72
2022/12/07 06:36:51;;;;;;;7.43;3.08;;;3.70;99.90;;;;;;5027485;28;20026;-73
2022/12/07 06:39:19;;;;;;;8.52;3.45;;;3.70;99.90;;;;;;5013325;28;20042;-73
2022/12/07 06:41:44;;;;;;;5.07;2.85;;;3.70;99.90;;;;;;5027510;28;20037;-74
2022/12/07 06:44:10;;;;;;;5.90;3.13;;;3.70;99.90;;;;;;5013271;28;20022;-73
2022/12/07 06:46:36;;;;;;;5.95;3.17;;;3.70;99.90;;;;;;5012954;28;20490;-73
2022/12/07 06:49:03;;;;;;;7.00;3.10;;;3.70;99.90;;;;;;5011129;28;20062;-73
2022/12/07 06:51:29;;;;;;;10.88;3.22;;;3.70;99.90;;;;;;5028713;28;20108;-72
2022/12/07 06:53:55;;;;;;;8.00;3.70;;;3.70;99.90;;;;;;5000496;28;20109;-73
2022/12/07 06:56:22;;;;;;;7.82;3.10;;;3.70;99.90;;;;;;5009331;28;20038;-72
2022/12/07 06:58:48;;;;;;;7.30;4.20;;;3.70;99.90;;;;;;5012850;28;20029;-71
2022/12/07 07:01:17;;;;;;;8.45;3.42;;;3.70;99.90;;;;;;5024082;28;20038;-73
2022/12/07 07:03:44;;;;;;;6.78;3.55;;;3.70;99.90;;;;;;5008210;28;20038;-66
2022/12/07 07:06:10;;;;;;;11.73;3.97;;;3.70;99.90;;;;;;5015393;28;20033;-67
2022/12/07 07:08:38;;;;;;;12.77;4.90;;;3.70;99.90;;;;;;5027811;28;20034;-67
2022/12/07 07:11:05;;;;;;;8.07;3.33;;;3.70;99.90;;;;;;5027476;28;20034;-76
2022/12/07 07:13:30;;;;;;;6.55;3.65;;;3.80;99.90;;;;;;5013140;28;20034;-72
2022/12/07 07:15:57;;;;;;;7.68;3.58;;;3.80;99.90;;;;;;5015972;28;20044;-71
2022/12/07 07:18:22;;;;;;;5.18;3.42;;;3.90;99.90;;;;;;5027613;28;20109;-66
2022/12/07 07:20:50;;;;;;;8.20;4.32;;;3.90;99.90;;;;;;5012078;28;20133;-71
2022/12/07 07:23:16;;;;;;;9.50;4.00;;;3.90;99.90;;;;;;5027403;28;20406;-73
2022/12/07 07:25:42;;;;;;;8.60;3.85;;;3.90;99.90;;;;;;5012239;28;20037;-70
2022/12/07 07:28:07;;;;;;;8.85;4.50;;;3.90;99.90;;;;;;5027709;28;20474;-71
2022/12/07 07:30:33;;;;;;;6.25;3.15;;;3.90;99.90;;;;;;5026240;28;20485;-72
2022/12/07 07:33:01;;;;;;;8.32;3.25;;;3.90;99.90;;;;;;5012661;28;20034;-68
2022/12/07 07:35:29;;;;;;;15.27;3.40;;;3.90;99.90;;;;;;5011339;28;20047;-69
2022/12/07 07:37:55;;;;;;;7.72;4.28;;;3.90;99.90;;;;;;5027255;28;20068;-70
2022/12/07 07:40:21;;;;;;;6.93;3.45;;;3.90;99.90;;;;;;5010882;28;20254;-69
2022/12/07 07:42:49;;;;;;;7.03;3.60;;;4.00;99.90;;;;;;5027151;28;20026;-70
2022/12/07 07:45:15;;;;;;;5.93;3.60;;;4.00;99.90;;;;;;5027071;28;20026;-69
2022/12/07 07:47:40;;;;;;;7.72;4.03;;;4.00;99.90;;;;;;5011923;28;20136;-68
2022/12/07 07:50:07;;;;;;;11.23;4.90;;;4.00;99.90;;;;;;5010778;28;20036;-68
2022/12/07 07:52:32;;;;;;;6.90;3.42;;;4.00;99.90;;;;;;5027506;28;20030;-69
2022/12/07 07:54:58;;;;;;;7.47;4.18;;;4.00;99.90;;;;;;5008319;28;20091;-69
2022/12/07 07:57:24;;;;;;;6.90;3.80;;;4.00;99.90;;;;;;5009177;28;20460;-69
2022/12/07 07:59:49;;;;;;;9.60;4.95;;;4.10;99.90;;;;;;5026213;28;20032;-70
2022/12/07 08:02:18;;;;;;;12.98;3.15;;;4.00;99.90;;;;;;5010423;28;20121;-70
2022/12/07 08:04:45;;;;;;;9.10;4.45;;;4.10;99.90;;;;;;5026926;28;20037;-70
2022/12/07 08:07:11;;;;;;;7.40;3.55;;;4.10;99.90;;;;;;5025588;28;20021;-70
2022/12/07 08:09:37;;;;;;;4.82;2.78;;;4.10;99.90;;;;;;5011621;28;20022;-70
2022/12/07 08:12:04;;;;;;;19.08;3.40;;;4.10;99.90;;;;;;5010572;28;20041;-70
2022/12/07 08:14:30;;;;;;;12.63;3.15;;;4.10;99.90;;;;;;5011618;28;20030;-70
2022/12/07 08:16:55;;;;;;;7.45;4.47;;;4.10;99.90;;;;;;5010523;28;20100;-70
2022/12/07 08:19:24;;;;;;;6.53;3.42;;;4.10;99.90;;;;;;5026383;28;20034;-70
2022/12/07 08:21:50;;;;;;;7.43;4.05;;;4.10;99.90;;;;;;5010478;28;20502;-70
2022/12/07 08:24:16;;;;;;;6.90;3.30;;;4.10;99.90;;;;;;5011465;28;20045;-71
2022/12/07 08:26:42;;;;;;;8.18;2.95;;;4.10;99.90;;;;;;5010569;28;20037;-70
2022/12/07 08:29:08;;;;;;;5.18;3.00;;;4.10;99.90;;;;;;5026324;28;20092;-70
2022/12/07 08:31:34;;;;;;;8.15;3.92;;;4.10;99.90;;;;;;5010756;28;20484;-71
2022/12/07 08:34:00;;;;;;;4.93;3.08;;;4.30;99.90;;;;;;5004155;28;20022;-71
2022/12/07 08:36:26;;;;;;;9.73;4.35;;;4.20;99.90;;;;;;5003952;28;20090;-71
2022/12/07 08:38:51;;;;;;;5.13;3.15;;;4.20;99.90;;;;;;5008932;28;20037;-73
2022/12/07 08:41:18;;;;;;;9.65;4.65;;;4.30;99.90;;;;;;5007967;28;20041;-74
2022/12/07 08:43:43;;;;;;;8.60;3.03;;;4.30;99.90;;;;;;5012640;28;20038;-74
2022/12/07 08:46:50;;;;;;;8.95;4.60;;;4.40;99.90;;;;;;5011281;28;20080;-75
2022/12/07 08:49:26;;;;;;;7.82;3.03;;;4.30;99.90;;;;;;5004196;28;20489;-74
2022/12/07 08:51:52;;;;;;;9.85;4.85;;;4.30;99.90;;;;;;5007340;28;20042;-72
2022/12/07 08:54:19;;;;;;;9.00;4.07;;;4.30;99.90;;;;;;5024855;28;20037;-75
2022/12/07 08:56:47;;;;;;;11.15;4.93;;;4.30;99.90;;;;;;5026250;28;20078;-71
2022/12/07 08:59:17;;;;;;;8.75;4.47;;;4.20;99.90;;;;;;5024323;28;20033;-73
2022/12/07 09:01:43;;;;;;;6.05;3.55;;;4.20;99.90;;;;;;5025537;28;20030;-73
2022/12/07 09:04:08;;;;;;;10.80;4.55;;;4.20;99.90;;;;;;5010197;28;20080;-72
2022/12/07 09:06:34;;;;;;;13.73;4.43;;;4.30;99.90;;;;;;5026081;28;20030;-73
2022/12/07 09:09:02;;;;;;;8.98;3.53;;;4.20;99.90;;;;;;5023628;28;20033;-73
2022/12/07 09:11:28;;;;;;;6.43;3.70;;;4.30;99.90;;;;;;5010461;28;20036;-73
2022/12/07 09:13:53;;;;;;;9.27;4.32;;;4.40;99.90;;;;;;5009624;28;20034;-72
2022/12/07 09:16:19;;;;;;;7.78;3.40;;;4.50;99.90;;;;;;5010450;28;20064;-72
2022/12/07 09:18:45;;;;;;;12.40;4.57;;;4.60;99.90;;;;;;5009221;28;20065;-73
2022/12/07 09:21:11;;;;;;;6.88;4.35;;;4.60;99.90;;;;;;5025151;28;20029;-71
2022/12/07 09:23:36;;;;;;;8.63;5.57;;;4.70;99.90;;;;;;5012089;28;20508;-72
2022/12/07 09:26:04;;;;;;;6.40;4.30;;;4.80;99.90;;;;;;5009190;28;20034;-72
2022/12/07 09:28:33;;;;;;;6.15;3.20;;;4.90;99.90;;;;;;5020996;28;20086;-72
2022/12/07 09:31:02;;;;;;;24.17;5.63;;;5.00;99.90;;;;;;5007862;28;20097;-73
2022/12/07 09:33:28;;;;;;;16.27;3.97;;;5.10;99.90;;;;;;5009714;28;20501;-71
2022/12/07 09:35:53;;;;;;;8.50;4.22;;;5.10;99.90;;;;;;5010082;28;20045;-72
2022/12/07 09:38:20;;;;;;;21.75;5.38;;;5.10;99.90;;;;;;5009112;28;20563;-72
2022/12/07 09:40:47;;;;;;;6.97;3.28;;;5.10;99.90;;;;;;5010129;28;20048;-72
2022/12/07 09:43:19;;;;;;;9.15;3.22;;;5.10;99.90;;;;;;5024392;28;20034;-71
2022/12/07 09:45:48;;;;;;;8.18;2.92;;;5.10;99.90;;;;;;4995675;28;20028;-71
2022/12/07 09:48:31;;;;;;;9.07;4.55;;;5.20;99.90;;;;;;5008800;28;20042;-71
2022/12/07 09:51:00;;;;;;;5.78;3.17;;;5.20;99.90;;;;;;5010527;28;20061;-71
2022/12/07 09:53:38;;;;;;;6.80;3.55;;;5.20;99.90;;;;;;5025018;28;20092;-72
2022/12/07 09:56:04;;;;;;;11.45;4.30;;;5.30;99.90;;;;;;5013903;28;20116;-73
2022/12/07 09:58:33;;;;;;;17.85;4.60;;;5.50;99.90;;;;;;5028329;28;20505;-73
2022/12/07 10:01:15;;;;;;;4.28;2.72;;;5.50;99.90;;;;;;5013316;28;20030;-71
2022/12/07 10:03:58;;;;;;;7.53;4.38;;;5.40;99.90;;;;;;5011524;28;20100;-70
2022/12/07 10:06:24;;;;;;;10.15;4.38;;;5.40;99.90;;;;;;5006640;28;20030;-70
2022/12/07 10:08:50;;;;;;;5.60;3.35;;;5.50;99.90;;;;;;5025505;28;20034;-70
2022/12/07 10:11:16;;;;;;;9.13;3.95;;;5.50;99.90;;;;;;5013771;28;20037;-70
2022/12/07 10:13:48;;;;;;;14.98;4.00;;;5.50;99.90;;;;;;5012932;28;20132;-71
2022/12/07 10:16:40;;;;;;;10.15;5.70;;;5.50;99.90;;;;;;5005088;28;20042;-71
2022/12/07 10:19:26;;;;;;;;;;;5.60;99.90;;;;;;5013228;28;20040;-72
2022/12/07 10:22:13;;;;;;;6.90;3.08;;;5.70;99.90;;;;;;5013516;28;20364;-72
2022/12/07 10:24:42;;;;;;;8.07;3.97;;;5.80;99.90;;;;;;5013158;28;20069;-71
2022/12/07 10:27:40;;;;;;;6.45;3.42;;;5.90;99.90;;;;;;5013875;28;20102;-71
2022/12/07 10:30:13;;;;;;;7.45;3.42;;;5.80;99.90;;;;;;5011280;28;20372;-72
2022/12/07 10:32:39;;;;;;;5.72;3.42;;;5.80;99.90;;;;;;5028556;28;20022;-72
2022/12/07 10:35:28;;;;;;;6.28;3.47;;;5.80;99.90;;;;;;5013011;28;20515;-72
2022/12/07 10:37:57;;;;;;;4.97;3.20;;;5.90;99.90;;;;;;5027138;28;20108;-71
2022/12/07 10:40:25;;;;;;;13.63;3.47;;;5.80;99.90;;;;;;5021622;28;20169;-71
2022/12/07 10:43:14;;;;;;;7.43;4.25;;;5.80;99.90;;;;;;5012976;28;20076;-71
2022/12/07 10:45:57;;;;;;;7.30;2.97;;;5.80;99.90;;;;;;5008582;28;20034;-72
2022/12/07 10:48:43;;;;;;;9.40;2.85;;;5.80;99.90;;;;;;4996986;28;20040;-72
2022/12/07 10:52:06;;;;;;;6.68;3.22;;;5.90;99.90;;;;;;5004036;28;20068;-71
2022/12/07 10:55:20;;;;;;;4.93;3.33;;;6.00;99.90;;;;;;5011093;28;20675;-72
2022/12/07 10:58:23;;;;;;;21.20;5.00;;;6.00;99.90;;;;;;5022866;28;20030;-71
2022/12/07 11:01:12;;;;;;;8.05;3.72;;;5.90;99.90;;;;;;5010004;28;20042;-71
2022/12/07 11:04:18;;;;;;;4.22;2.17;;;5.90;99.90;;;;;;5012526;28;20038;-70
2022/12/07 11:07:22;;;;;;;5.80;3.25;;;5.90;99.90;;;;;;5009526;28;20041;-71
2022/12/07 11:10:12;;;;;;;6.38;2.88;;;6.00;99.90;;;;;;5011519;28;20057;-71
2022/12/07 11:12:48;;;;;;;6.03;3.13;;;6.20;99.90;;;;;;5012929;28;20034;-70
2022/12/07 11:15:31;;;;;;;4.97;2.40;;;6.10;99.90;;;;;;5012642;28;20076;-71
2022/12/07 11:18:43;;;;;;;6.15;3.42;;;6.10;99.90;;;;;;5012118;28;20030;-71
2022/12/07 11:21:40;;;;;;;5.70;2.53;;;6.20;99.90;;;;;;5004375;28;20026;-71
2022/12/07 11:24:17;;;;;;;5.30;2.58;;;6.30;99.90;;;;;;5023849;28;20037;-70
2022/12/07 11:27:41;;;;;;;3.88;2.38;;;6.30;99.90;;;;;;5027739;28;20026;-71
2022/12/07 11:30:28;;;;;;;6.05;2.63;;;6.20;99.90;;;;;;5009902;28;20587;-71
2022/12/07 11:33:21;;;;;;;5.30;2.47;;;6.20;99.90;;;;;;5025695;28;20575;-71
2022/12/07 11:36:05;;;;;;;8.95;3.80;;;6.10;99.90;;;;;;5023167;28;20073;-71
2022/12/07 11:38:50;;;;;;;6.50;2.63;;;6.20;99.90;;;;;;5023263;28;20459;-71
2022/12/07 11:41:27;;;;;;;7.60;2.30;;;6.10;99.90;;;;;;5003725;28;20049;-71
2022/12/07 11:44:02;;;;;;;4.97;2.53;;;6.00;99.90;;;;;;5024152;28;20454;-71
2022/12/07 11:46:47;;;;;;;4.50;2.25;;;5.90;99.90;;;;;;5011892;28;20025;-71
2022/12/07 11:49:30;;;;;;;5.80;2.97;;;5.90;99.90;;;;;;5011331;28;20129;-72
2022/12/07 11:52:00;;;;;;;5.30;3.15;;;5.90;99.90;;;;;;5011816;28;20030;-71
2022/12/07 11:54:39;;;;;;;5.13;2.43;;;6.00;99.90;;;;;;5010736;28;20034;-71
2022/12/07 11:57:19;;;;;;;10.35;2.42;;;6.20;99.90;;;;;;5026373;28;20915;-71
2022/12/07 11:59:53;;;;;;;6.18;2.15;;;6.30;99.90;;;;;;5024444;28;20033;-71
2022/12/07 12:02:28;;;;;;;4.95;3.17;;;6.60;99.90;;;;;;5026689;28;20034;-71
2022/12/07 12:05:17;;;;;;;3.70;2.00;;;6.90;99.90;;;;;;5025435;28;20034;-72
2022/12/07 12:07:46;;;;;;;5.57;2.13;;;7.10;99.90;;;;;;5012041;28;20026;-72
2022/12/07 12:10:34;;;;;;;5.28;1.98;;;6.80;99.90;;;;;;5010486;28;20112;-71
2022/12/07 12:13:56;;;;;;;5.07;2.10;;;6.60;99.90;;;;;;5026304;28;20032;-71
2022/12/07 12:17:09;;;;;;;3.28;1.60;;;6.60;99.90;;;;;;5003020;28;20029;-71
2022/12/07 12:20:18;;;;;;;5.70;2.22;;;6.60;99.90;;;;;;5010311;28;20042;-71
2022/12/07 12:22:59;;;;;;;5.90;1.45;;;6.50;99.90;;;;;;5008182;28;20034;-71
2022/12/07 12:25:36;;;;;;;2.05;1.10;;;6.40;99.90;;;;;;5019318;28;20176;-73
2022/12/07 12:28:02;;;;;;;4.38;2.50;;;6.40;99.90;;;;;;5010760;28;20068;-72
2022/12/07 12:30:40;;;;;;;7.97;2.45;;;6.50;99.90;;;;;;5011297;28;20109;-71
2022/12/07 12:33:42;;;;;;;8.88;2.35;;;6.40;99.90;;;;;;5025472;28;20041;-71
2022/12/07 12:36:45;;;;;;;3.83;1.90;;;6.20;99.90;;;;;;4950228;28;20061;-71
2022/12/07 12:39:18;;;;;;;7.78;1.52;;;6.20;99.90;;;;;;5001251;28;20025;-71
2022/12/07 12:44:19;;;;;;;2.95;1.95;;;6.20;99.90;;;;;;5010242;28;20056;-72
2022/12/07 12:46:54;;;;;;;5.75;2.50;;;6.20;99.90;;;;;;5026346;28;20080;-72
2022/12/07 12:49:20;;;;;;;3.42;1.67;;;6.30;99.90;;;;;;5009741;28;20080;-72
2022/12/07 12:51:55;;;;;;;7.38;1.83;;;6.40;99.90;;;;;;5026047;28;20038;-72
2022/12/07 12:54:25;;;;;;;3.55;1.60;;;6.30;99.90;;;;;;5025082;28;20038;-72
2022/12/07 12:57:20;;;;;;;4.13;1.63;;;6.30;99.90;;;;;;5010900;28;20493;-72
2022/12/07 12:59:52;;;;;;;3.63;1.50;;;6.30;99.90;;;;;;5009413;28;20041;-72
2022/12/07 13:02:34;;;;;;;4.90;2.10;;;6.30;99.90;;;;;;5010605;28;20034;-72
2022/12/07 13:05:07;;;;;;;3.83;2.08;;;6.50;99.90;;;;;;5008793;28;20038;-72
2022/12/07 13:10:29;;;;;;;4.53;1.83;;;6.30;99.90;;;;;;5009754;28;20033;-72
2022/12/07 13:13:17;;;;;;;4.10;1.90;;;6.30;99.90;;;;;;5010574;28;20655;-71
2022/12/07 13:15:48;;;;;;;1.88;1.23;;;6.40;99.90;;;;;;5024876;28;20132;-72
2022/12/07 13:18:32;;;;;;;3.80;1.70;;;6.50;99.90;;;;;;5002759;28;20034;-72
2022/12/07 13:21:00;;;;;;;4.18;1.80;;;6.20;99.90;;;;;;5010099;28;20128;-73
2022/12/07 13:23:45;;;;;;;2.83;1.50;;;6.20;99.90;;;;;;5010314;28;20044;-72
2022/12/07 13:26:37;;;;;;;5.43;1.60;;;6.30;99.90;;;;;;5009729;28;20032;-72
2022/12/07 13:29:05;;;;;;;;;;;6.30;99.90;;;;;;5025117;28;20071;-73
2022/12/07 13:31:55;;;;;;;2.80;1.65;;;6.40;99.90;;;;;;5009122;28;19917;-72
2022/12/07 13:34:47;;;;;;;2.45;1.10;;;6.30;99.90;;;;;;4992981;28;20455;-73
2022/12/07 13:37:14;;;;;;;1.50;0.90;;;6.20;99.90;;;;;;4996940;28;20125;-72
2022/12/07 13:39:50;;;;;;;1.63;0.93;;;6.20;99.90;;;;;;5021409;28;20066;-73
2022/12/07 13:42:29;;;;;;;3.72;1.30;;;6.30;99.90;;;;;;5018071;28;20572;-70